createdAt,value
2019-03-23T00:00:38.219Z,47.30
2019-03-23T00:03:04.249Z,47.40
2019-03-23T00:05:30.288Z,47.30
2019-03-23T00:07:56.316Z,47.30
2019-03-23T00:10:22.346Z,47.40
2019-03-23T00:12:48.492Z,47.60
2019-03-23T00:15:15.119Z,47.70
2019-03-23T00:17:41.171Z,48.00
2019-03-23T00:20:08.432Z,48.20
2019-03-23T00:22:34.785Z,48.40
2019-03-23T00:25:00.796Z,48.80
2019-03-23T00:27:26.855Z,48.90
2019-03-23T00:29:52.929Z,49.10
2019-03-23T00:32:19.050Z,49.40
2019-03-23T00:34:45.088Z,49.60
2019-03-23T00:37:11.132Z,49.90
2019-03-23T00:39:37.427Z,50.10
2019-03-23T00:42:03.466Z,50.20
2019-03-23T00:44:29.552Z,50.70
2019-03-23T00:46:55.602Z,50.80
2019-03-23T00:49:21.643Z,51.10
2019-03-23T00:51:47.666Z,51.10
2019-03-23T00:54:13.693Z,51.20
2019-03-23T00:56:39.713Z,51.30
2019-03-23T00:59:05.733Z,51.20
2019-03-23T01:01:31.774Z,51.60
2019-03-23T01:03:58.442Z,51.90
2019-03-23T01:06:24.794Z,52.20
2019-03-23T01:08:50.850Z,52.40
2019-03-23T01:11:17.122Z,52.60
2019-03-23T01:13:43.162Z,52.80
2019-03-23T01:16:09.173Z,52.50
2019-03-23T01:18:35.214Z,53.00
2019-03-23T01:21:01.232Z,53.00
2019-03-23T01:23:27.290Z,53.10
2019-03-23T01:25:53.301Z,53.30
2019-03-23T01:28:19.341Z,53.40
2019-03-23T01:30:45.349Z,53.00
2019-03-23T01:33:11.379Z,52.80
2019-03-23T01:35:37.401Z,52.70
2019-03-23T01:38:03.417Z,53.30
2019-03-23T01:40:29.448Z,52.90
2019-03-23T01:42:55.467Z,53.00
2019-03-23T01:45:21.557Z,53.10
2019-03-23T01:47:47.609Z,53.30
2019-03-23T01:50:13.852Z,53.40
2019-03-23T01:52:39.888Z,53.50
2019-03-23T01:55:07.034Z,53.60
2019-03-23T01:57:33.050Z,53.90
2019-03-23T01:59:59.082Z,54.00
2019-03-23T02:02:25.118Z,54.30
2019-03-23T02:04:51.149Z,54.50
2019-03-23T02:07:17.176Z,54.70
2019-03-23T02:09:43.209Z,54.90
2019-03-23T02:12:09.227Z,55.10
2019-03-23T02:14:35.583Z,55.30
2019-03-23T02:17:01.599Z,55.60
2019-03-23T02:19:27.646Z,56.30
2019-03-23T02:21:53.668Z,56.20
2019-03-23T02:24:19.696Z,56.30
2019-03-23T02:26:45.723Z,56.30
2019-03-23T02:29:12.014Z,56.50
2019-03-23T02:31:38.042Z,56.50
2019-03-23T02:34:04.093Z,57.80
2019-03-23T02:36:30.155Z,56.60
2019-03-23T02:38:56.187Z,57.00
2019-03-23T02:41:22.383Z,58.20
2019-03-23T02:43:48.475Z,58.30
2019-03-23T02:46:14.507Z,59.20
2019-03-23T02:48:40.525Z,59.40
2019-03-23T02:51:06.550Z,59.20
2019-03-23T02:53:32.703Z,59.70
2019-03-23T02:55:58.767Z,59.90
2019-03-23T02:58:25.004Z,59.70
2019-03-23T03:00:51.014Z,60.00
2019-03-23T03:03:17.039Z,60.60
2019-03-23T03:05:43.058Z,62.40
2019-03-23T03:08:09.185Z,61.70
2019-03-23T03:10:38.808Z,61.50
2019-03-23T03:13:05.244Z,62.00
2019-03-23T03:15:31.274Z,63.30
2019-03-23T03:17:57.300Z,64.90
2019-03-23T03:20:23.455Z,64.40
2019-03-23T03:22:49.470Z,66.90
2019-03-23T03:25:15.515Z,65.00
2019-03-23T03:27:41.545Z,64.80
2019-03-23T03:30:09.595Z,66.70
2019-03-23T03:32:35.678Z,66.40
2019-03-23T03:35:01.978Z,67.10
2019-03-23T03:37:28.107Z,66.40
2019-03-23T03:39:54.346Z,66.00
2019-03-23T03:42:20.386Z,66.40
2019-03-23T03:44:46.431Z,65.60
2019-03-23T03:47:12.495Z,65.80
2019-03-23T03:49:38.515Z,66.70
2019-03-23T03:52:04.558Z,67.60
2019-03-23T03:54:30.595Z,66.80
2019-03-23T03:56:56.594Z,67.60
2019-03-23T03:59:22.938Z,68.10
2019-03-23T04:01:48.985Z,67.60
2019-03-23T04:04:15.127Z,68.40
2019-03-23T04:06:41.426Z,67.30
2019-03-23T04:09:07.425Z,67.50
2019-03-23T04:11:33.883Z,69.40
2019-03-23T04:14:00.189Z,69.60
2019-03-23T04:16:26.240Z,70.00
2019-03-23T04:18:52.256Z,69.50
2019-03-23T04:21:18.303Z,71.10
2019-03-23T04:23:44.331Z,71.40
2019-03-23T04:26:10.358Z,70.40
2019-03-23T04:28:36.374Z,69.60
2019-03-23T04:31:02.426Z,68.90
2019-03-23T04:33:28.462Z,69.80
2019-03-23T04:35:54.496Z,69.70
2019-03-23T04:38:23.115Z,70.70
2019-03-23T04:40:48.430Z,70.20
2019-03-23T04:43:14.826Z,70.60
2019-03-23T04:45:40.837Z,69.30
2019-03-23T04:48:06.887Z,69.00
2019-03-23T04:50:32.932Z,69.60
2019-03-23T04:52:58.974Z,69.10
2019-03-23T04:55:24.999Z,68.90
2019-03-23T04:57:51.050Z,69.10
2019-03-23T05:00:18.871Z,69.10
2019-03-23T05:02:45.051Z,69.50
2019-03-23T05:05:11.260Z,70.10
2019-03-23T05:07:37.300Z,70.00
2019-03-23T05:10:05.123Z,69.50
2019-03-23T05:12:31.153Z,69.50
2019-03-23T05:14:57.173Z,69.40
2019-03-23T05:17:23.217Z,69.40
2019-03-23T05:19:49.236Z,69.40
2019-03-23T05:22:15.283Z,69.40
2019-03-23T05:24:41.305Z,69.60
2019-03-23T05:27:07.353Z,70.10
2019-03-23T05:29:33.382Z,69.30
2019-03-23T05:31:59.402Z,70.50
2019-03-23T05:34:25.439Z,70.00
2019-03-23T05:36:51.835Z,70.20
2019-03-23T05:39:17.863Z,70.10
2019-03-23T05:41:43.911Z,69.90
2019-03-23T05:44:09.942Z,70.00
2019-03-23T05:46:35.949Z,69.70
2019-03-23T05:49:01.979Z,69.90
2019-03-23T05:51:28.019Z,69.50
2019-03-23T05:53:54.055Z,69.70
2019-03-23T05:56:20.094Z,69.80
2019-03-23T05:58:46.131Z,69.60
2019-03-23T06:01:12.165Z,69.70
2019-03-23T06:03:38.215Z,69.70
2019-03-23T06:06:04.259Z,69.60
2019-03-23T06:08:30.271Z,69.80
2019-03-23T06:10:56.295Z,69.80
2019-03-23T06:13:22.675Z,70.00
2019-03-23T06:15:48.708Z,69.90
2019-03-23T06:18:14.748Z,70.80
2019-03-23T06:20:40.773Z,69.40
2019-03-23T06:23:06.811Z,70.10
2019-03-23T06:25:33.211Z,70.10
2019-03-23T06:27:59.230Z,70.30
2019-03-23T06:30:25.269Z,70.70
2019-03-23T06:32:51.313Z,70.10
2019-03-23T06:35:17.411Z,70.10
2019-03-23T06:37:43.509Z,70.30
2019-03-23T06:40:18.398Z,70.10
2019-03-23T06:42:44.445Z,70.10
2019-03-23T06:45:11.083Z,70.00
2019-03-23T06:47:37.101Z,70.30
2019-03-23T06:50:05.531Z,70.40
2019-03-23T06:52:31.557Z,70.20
2019-03-23T06:54:57.578Z,70.30
2019-03-23T06:57:23.597Z,70.50
2019-03-23T06:59:49.649Z,70.30
2019-03-23T07:02:15.657Z,70.50
2019-03-23T07:04:41.683Z,71.20
2019-03-23T07:07:07.735Z,70.80
2019-03-23T07:09:33.777Z,70.80
2019-03-23T07:11:59.856Z,70.70
2019-03-23T07:14:25.940Z,70.70
2019-03-23T07:16:51.964Z,70.70
2019-03-23T07:19:17.979Z,70.70
2019-03-23T07:21:44.013Z,70.80
2019-03-23T07:24:10.029Z,70.80
2019-03-23T07:26:36.058Z,71.20
2019-03-23T07:29:02.378Z,70.70
2019-03-23T07:31:28.407Z,71.00
2019-03-23T07:33:54.421Z,71.20
2019-03-23T07:36:20.465Z,70.90
2019-03-23T07:38:47.010Z,70.80
2019-03-23T07:41:13.139Z,70.90
2019-03-23T07:43:39.170Z,70.80
2019-03-23T07:46:05.194Z,70.80
2019-03-23T07:48:31.219Z,71.10
2019-03-23T07:50:57.515Z,71.00
2019-03-23T07:53:23.544Z,71.00
2019-03-23T07:55:49.638Z,71.90
2019-03-23T07:58:15.679Z,70.90
2019-03-23T08:00:41.697Z,70.70
2019-03-23T08:03:07.713Z,70.50
2019-03-23T08:05:33.746Z,71.20
2019-03-23T08:07:59.769Z,70.40
2019-03-23T08:10:31.303Z,70.30
2019-03-23T08:12:57.427Z,70.40
2019-03-23T08:15:23.702Z,70.40
2019-03-23T08:17:49.785Z,70.40
2019-03-23T08:20:16.129Z,70.40
2019-03-23T08:22:42.181Z,70.20
2019-03-23T08:25:08.320Z,70.40
2019-03-23T08:27:34.457Z,70.00
2019-03-23T08:30:00.525Z,70.00
2019-03-23T08:32:26.553Z,69.70
2019-03-23T08:34:52.663Z,69.50
2019-03-23T08:37:18.810Z,69.50
2019-03-23T08:39:48.747Z,69.30
2019-03-23T08:42:12.833Z,69.20
2019-03-23T08:44:38.904Z,69.10
2019-03-23T08:47:04.944Z,69.10
2019-03-23T08:49:31.013Z,69.50
2019-03-23T08:51:57.047Z,69.10
2019-03-23T08:54:23.127Z,68.80
2019-03-23T08:56:49.221Z,68.50
2019-03-23T08:59:15.239Z,68.20
2019-03-23T09:01:41.262Z,67.70
2019-03-23T09:04:07.339Z,67.40
2019-03-23T09:06:33.397Z,67.20
2019-03-23T09:08:59.433Z,67.10
2019-03-23T09:11:25.448Z,66.90
2019-03-23T09:13:51.490Z,66.70
2019-03-23T09:16:17.544Z,66.50
2019-03-23T09:18:43.837Z,66.30
2019-03-23T09:21:09.873Z,66.10
2019-03-23T09:23:35.935Z,65.70
2019-03-23T09:26:01.998Z,65.50
2019-03-23T09:28:28.286Z,65.00
2019-03-23T09:30:54.340Z,64.60
2019-03-23T09:33:20.846Z,64.30
2019-03-23T09:35:46.857Z,64.10
2019-03-23T09:38:12.906Z,63.40
2019-03-23T09:40:38.933Z,63.30
2019-03-23T09:43:04.952Z,63.00
2019-03-23T09:45:30.974Z,62.80
2019-03-23T09:47:57.206Z,62.80
2019-03-23T09:50:23.228Z,62.30
2019-03-23T09:52:49.259Z,62.20
2019-03-23T09:55:15.275Z,62.20
2019-03-23T09:57:41.320Z,61.90
2019-03-23T10:00:10.248Z,61.50
2019-03-23T10:02:36.270Z,61.20
2019-03-23T10:05:03.981Z,60.90
2019-03-23T10:07:30.035Z,60.40
2019-03-23T10:09:56.110Z,60.20
2019-03-23T10:12:22.158Z,59.80
2019-03-23T10:14:48.203Z,59.60
2019-03-23T10:17:14.220Z,59.60
2019-03-23T10:19:40.342Z,59.10
2019-03-23T10:22:06.354Z,58.40
2019-03-23T10:24:32.436Z,58.80
2019-03-23T10:26:58.556Z,59.10
2019-03-23T10:29:24.592Z,59.00
2019-03-23T10:31:50.607Z,59.00
2019-03-23T10:34:16.672Z,59.10
2019-03-23T10:36:42.746Z,59.10
2019-03-23T10:39:08.822Z,58.70
2019-03-23T10:41:34.873Z,58.80
2019-03-23T10:44:00.907Z,58.70
2019-03-23T10:46:26.964Z,58.60
2019-03-23T10:48:52.987Z,58.40
2019-03-23T10:51:19.126Z,58.40
2019-03-23T10:53:45.202Z,58.30
2019-03-23T10:56:11.248Z,58.10
2019-03-23T10:58:37.285Z,58.30
2019-03-23T11:01:03.294Z,58.30
2019-03-23T11:03:29.355Z,57.70
2019-03-23T11:05:55.501Z,57.60
2019-03-23T11:08:21.612Z,57.90
2019-03-23T11:10:47.649Z,57.90
2019-03-23T11:13:13.723Z,57.80
2019-03-23T11:15:39.746Z,57.80
2019-03-23T11:18:05.772Z,57.70
2019-03-23T11:20:31.819Z,57.80
2019-03-23T11:22:57.876Z,57.80
2019-03-23T11:25:24.115Z,57.70
2019-03-23T11:27:50.139Z,57.60
2019-03-23T11:30:16.257Z,57.50
2019-03-23T11:32:42.608Z,57.50
2019-03-23T11:35:08.791Z,57.50
2019-03-23T11:37:35.497Z,57.30
2019-03-23T11:40:02.105Z,57.40
2019-03-23T11:42:28.135Z,57.40
2019-03-23T11:44:54.294Z,57.30
2019-03-23T11:47:20.442Z,57.30
2019-03-23T11:49:46.461Z,58.00
2019-03-23T11:52:12.936Z,57.00
2019-03-23T11:54:39.009Z,57.00
2019-03-23T11:57:05.191Z,57.20
2019-03-23T11:59:31.355Z,58.20
2019-03-23T12:01:57.395Z,57.70
2019-03-23T12:04:24.962Z,58.10
2019-03-23T12:06:51.378Z,57.90
2019-03-23T12:09:17.394Z,57.50
2019-03-23T12:11:43.430Z,56.80
2019-03-23T12:14:09.460Z,55.50
2019-03-23T12:16:35.793Z,55.10
2019-03-23T12:19:01.985Z,54.90
2019-03-23T12:21:28.061Z,55.00
2019-03-23T12:23:54.171Z,55.30
2019-03-23T12:26:20.506Z,55.40
2019-03-23T12:28:47.357Z,55.50
2019-03-23T12:31:13.442Z,55.70
2019-03-23T12:33:39.461Z,55.70
2019-03-23T12:36:05.493Z,56.90
2019-03-23T12:38:31.651Z,56.80
2019-03-23T12:40:57.717Z,57.90
2019-03-23T12:43:23.728Z,57.00
2019-03-23T12:45:49.790Z,54.90
2019-03-23T12:48:15.898Z,54.40
2019-03-23T12:50:42.350Z,52.70
2019-03-23T12:53:08.673Z,52.60
2019-03-23T12:55:34.707Z,51.10
2019-03-23T12:58:00.742Z,51.60
2019-03-23T13:00:26.783Z,50.60
2019-03-23T13:02:53.736Z,50.00
2019-03-23T13:05:19.777Z,49.40
2019-03-23T13:07:45.848Z,49.50
2019-03-23T13:10:12.774Z,50.10
2019-03-23T13:12:38.986Z,50.10
2019-03-23T13:15:07.728Z,50.30
2019-03-23T13:17:33.764Z,50.10
2019-03-23T13:19:59.856Z,50.00
2019-03-23T13:22:25.949Z,50.40
2019-03-23T13:24:52.011Z,50.60
2019-03-23T13:27:18.415Z,50.00
2019-03-23T13:29:44.744Z,50.40
2019-03-23T13:32:10.802Z,50.50
2019-03-23T13:34:36.838Z,50.80
2019-03-23T13:37:02.992Z,50.80
2019-03-23T13:39:29.026Z,50.90
2019-03-23T13:41:55.082Z,51.10
2019-03-23T13:44:21.123Z,50.90
2019-03-23T13:46:47.145Z,50.00
2019-03-23T13:49:13.188Z,50.20
2019-03-23T13:51:39.347Z,49.00
2019-03-23T13:54:05.386Z,49.40
2019-03-23T13:56:31.418Z,49.40
2019-03-23T13:58:57.469Z,48.50
2019-03-23T14:01:23.766Z,48.70
2019-03-23T14:03:49.874Z,48.80
2019-03-23T14:06:15.893Z,48.90
2019-03-23T14:08:41.931Z,49.10
2019-03-23T14:11:07.994Z,49.70
2019-03-23T14:13:34.044Z,49.90
2019-03-23T14:16:00.410Z,50.20
2019-03-23T14:18:26.478Z,50.30
2019-03-23T14:20:52.504Z,50.60
2019-03-23T14:23:18.527Z,50.10
2019-03-23T14:25:44.537Z,50.50
2019-03-23T14:28:10.589Z,50.40
2019-03-23T14:30:36.683Z,50.40
2019-03-23T14:33:02.739Z,50.70
2019-03-23T14:35:28.830Z,50.90
2019-03-23T14:37:54.877Z,50.30
2019-03-23T14:40:20.918Z,50.40
2019-03-23T14:42:46.947Z,50.20
2019-03-23T14:45:13.017Z,50.10
2019-03-23T14:47:39.107Z,50.10
2019-03-23T14:50:05.530Z,49.10
2019-03-23T14:52:31.545Z,49.40
2019-03-23T14:54:57.572Z,49.60
2019-03-23T14:57:23.598Z,49.30
2019-03-23T14:59:49.738Z,48.80
2019-03-23T15:02:15.750Z,49.00
2019-03-23T15:04:41.794Z,49.00
2019-03-23T15:07:07.812Z,48.80
2019-03-23T15:09:33.846Z,48.80
2019-03-23T15:11:59.859Z,48.60
2019-03-23T15:14:25.877Z,48.50
2019-03-23T15:16:51.890Z,48.10
2019-03-23T15:19:18.012Z,48.00
2019-03-23T15:21:44.143Z,47.70
2019-03-23T15:24:10.187Z,47.60
2019-03-23T15:26:36.229Z,47.70
2019-03-23T15:29:02.247Z,47.90
2019-03-23T15:31:28.289Z,48.00
2019-03-23T15:33:54.410Z,48.00
2019-03-23T15:36:20.434Z,48.20
2019-03-23T15:38:46.480Z,48.20
2019-03-23T15:41:12.510Z,48.30
2019-03-23T15:43:38.525Z,48.40
2019-03-23T15:46:04.549Z,48.60
2019-03-23T15:48:30.688Z,48.80
2019-03-23T15:50:56.714Z,49.00
2019-03-23T15:53:22.783Z,49.20
2019-03-23T15:55:48.787Z,49.50
2019-03-23T15:58:14.801Z,49.80
2019-03-23T16:00:40.816Z,50.10
2019-03-23T16:03:06.813Z,50.30
2019-03-23T16:05:32.843Z,50.60
2019-03-23T16:07:58.891Z,50.90
2019-03-23T16:10:24.946Z,51.40
2019-03-23T16:12:51.323Z,52.20
2019-03-23T16:15:17.560Z,51.90
2019-03-23T16:17:43.560Z,52.00
2019-03-23T16:20:10.730Z,52.40
2019-03-23T16:22:36.759Z,52.50
2019-03-23T16:25:07.790Z,52.50
2019-03-23T16:27:33.963Z,52.60
2019-03-23T16:29:59.996Z,53.00
2019-03-23T16:32:26.015Z,53.20
2019-03-23T16:34:52.084Z,53.40
2019-03-23T16:37:18.129Z,53.40
2019-03-23T16:39:44.206Z,53.40
2019-03-23T16:42:10.230Z,53.90
2019-03-23T16:44:36.261Z,53.70
2019-03-23T16:47:02.270Z,53.80
2019-03-23T16:49:28.339Z,54.10
2019-03-23T16:51:54.483Z,54.00
2019-03-23T16:54:20.739Z,54.50
2019-03-23T16:56:47.014Z,55.00
2019-03-23T16:59:13.140Z,54.80
2019-03-23T17:01:39.172Z,54.90
2019-03-23T17:04:05.190Z,55.10
2019-03-23T17:06:31.247Z,55.20
2019-03-23T17:08:57.272Z,55.20
2019-03-23T17:11:23.298Z,55.30
2019-03-23T17:13:49.318Z,55.20
2019-03-23T17:16:15.350Z,55.50
2019-03-23T17:18:41.359Z,55.80
2019-03-23T17:21:07.398Z,55.70
2019-03-23T17:23:33.427Z,56.00
2019-03-23T18:34:06.140Z,40.60
2019-03-23T18:36:34.572Z,40.20
2019-03-23T18:39:04.436Z,39.90
2019-03-23T18:41:32.928Z,40.40
2019-03-23T18:44:01.618Z,41.20
2019-03-23T18:46:30.056Z,42.10
2019-03-23T18:48:58.580Z,43.20
2019-03-23T18:51:27.003Z,44.40
2019-03-23T18:53:55.402Z,45.60
2019-03-23T18:56:23.854Z,46.90
2019-03-23T18:58:52.271Z,48.00
2019-03-23T19:01:20.705Z,49.00
2019-03-23T19:03:49.363Z,50.00
2019-03-23T19:06:18.007Z,50.90
2019-03-23T19:08:46.450Z,51.80
2019-03-23T19:11:15.109Z,52.50
2019-03-23T19:13:43.624Z,53.30
2019-03-23T19:16:12.109Z,53.90
2019-03-23T19:18:40.513Z,54.30
2019-03-23T19:21:08.969Z,54.90
2019-03-23T19:23:37.388Z,55.40
2019-03-23T19:26:06.063Z,56.00
2019-03-23T19:28:34.508Z,56.40
2019-03-23T19:31:02.918Z,56.70
2019-03-23T19:33:31.404Z,57.10
2019-03-23T19:35:59.822Z,57.30
2019-03-23T19:38:28.236Z,57.70
2019-03-23T19:40:56.652Z,57.90
2019-03-23T19:43:25.339Z,58.10
2019-03-23T19:45:53.784Z,58.30
2019-03-23T19:48:22.281Z,58.50
2019-03-23T19:50:50.765Z,58.70
2019-03-23T19:53:19.198Z,58.80
2019-03-23T19:55:48.517Z,59.00
2019-03-23T19:58:16.947Z,59.20
2019-03-23T20:00:45.359Z,59.40
2019-03-23T20:03:13.820Z,59.50
2019-03-23T20:05:42.294Z,59.70
2019-03-23T20:08:10.737Z,59.80
2019-03-23T20:10:39.301Z,60.10
2019-03-23T20:13:07.716Z,60.20
2019-03-23T20:15:36.121Z,60.30
2019-03-23T20:18:05.003Z,60.40
2019-03-23T20:20:33.476Z,60.60
2019-03-23T20:23:02.182Z,60.60
2019-03-23T20:25:30.617Z,60.80
2019-03-23T20:27:59.051Z,60.90
2019-03-23T20:30:28.528Z,60.90
2019-03-23T20:32:56.932Z,61.10
2019-03-23T20:35:25.660Z,61.20
2019-03-23T20:37:54.167Z,61.30
2019-03-23T20:40:22.595Z,61.20
2019-03-23T20:42:51.032Z,61.40
2019-03-23T20:45:30.373Z,61.50
2019-03-23T20:47:59.752Z,61.50
2019-03-23T20:50:28.225Z,61.60
2019-03-23T20:52:56.797Z,61.60
2019-03-23T20:55:27.156Z,61.80
2019-03-23T20:57:55.716Z,61.90
2019-03-23T21:00:24.133Z,62.00
2019-03-23T21:02:52.531Z,62.10
2019-03-23T21:05:20.946Z,62.20
2019-03-23T21:07:49.374Z,62.30
2019-03-23T21:10:17.884Z,62.30
2019-03-23T21:12:46.624Z,62.30
2019-03-23T21:15:15.120Z,62.50
2019-03-23T21:17:51.158Z,62.50
2019-03-23T21:20:14.321Z,62.60
2019-03-23T21:22:42.723Z,62.60
2019-03-23T21:25:12.251Z,62.70
2019-03-23T21:27:40.685Z,62.80
2019-03-23T21:30:16.554Z,62.90
2019-03-23T21:32:45.098Z,63.10
2019-03-23T21:35:15.807Z,63.20
2019-03-23T21:37:44.277Z,63.30
2019-03-23T21:40:12.943Z,63.40
2019-03-23T21:42:41.352Z,63.80
2019-03-23T21:45:10.521Z,63.70
2019-03-23T21:47:38.926Z,64.60
2019-03-23T21:50:09.089Z,64.40
2019-03-23T21:52:37.789Z,63.90
2019-03-23T21:55:07.595Z,64.00
2019-03-23T21:57:36.188Z,64.10
2019-03-23T22:00:06.982Z,64.20
2019-03-23T22:02:35.382Z,64.40
2019-03-23T22:05:04.965Z,64.50
2019-03-23T22:07:33.376Z,64.60
2019-03-23T22:10:01.801Z,64.80
2019-03-23T22:12:30.226Z,65.80
2019-03-23T22:14:58.645Z,65.00
2019-03-23T22:17:27.053Z,65.20
2019-03-23T22:19:55.725Z,65.30
2019-03-23T22:22:24.208Z,65.40
2019-03-23T22:24:52.632Z,65.50
2019-03-23T22:27:21.058Z,65.60
2019-03-23T22:29:49.542Z,65.70
2019-03-23T22:32:18.145Z,65.80
2019-03-23T22:34:49.129Z,66.00
2019-03-23T22:37:16.920Z,66.00
2019-03-23T22:39:45.333Z,66.30
2019-03-23T22:42:13.749Z,66.50
2019-03-23T22:44:52.142Z,66.50
2019-03-23T22:47:13.882Z,66.60
2019-03-23T22:49:42.305Z,66.70
2019-03-23T22:52:10.726Z,66.80
2019-03-23T22:54:39.524Z,66.90
2019-03-23T22:57:07.981Z,67.00
2019-03-23T22:59:36.457Z,67.20
2019-03-23T23:02:05.029Z,67.30
2019-03-23T23:04:33.785Z,67.40
2019-03-23T23:07:02.189Z,67.60
2019-03-23T23:09:30.695Z,67.50
2019-03-23T23:11:59.106Z,67.60
2019-03-23T23:14:27.531Z,67.60
2019-03-23T23:16:56.294Z,67.70
2019-03-23T23:19:24.723Z,67.80
2019-03-23T23:21:53.180Z,68.00
2019-03-23T23:24:21.866Z,68.00
2019-03-23T23:26:50.333Z,68.00
2019-03-23T23:29:18.749Z,68.20
2019-03-23T23:31:47.186Z,68.20
2019-03-23T23:34:15.600Z,68.30
2019-03-23T23:36:44.021Z,68.30
2019-03-23T23:39:12.428Z,68.30
2019-03-23T23:41:40.844Z,68.10
2019-03-23T23:44:09.256Z,68.20
2019-03-23T23:46:37.673Z,68.10
2019-03-23T23:49:06.483Z,68.10
2019-03-23T23:51:34.905Z,68.10
2019-03-23T23:54:03.393Z,68.20
2019-03-23T23:56:31.823Z,68.30
2019-03-23T23:59:00.299Z,69.20
